createdAt,value
2018-12-22T00:02:25.815Z,6.43
2018-12-22T00:04:53.261Z,7.07
2018-12-22T00:07:20.747Z,6.00
2018-12-22T00:09:48.231Z,6.80
2018-12-22T00:12:15.827Z,6.13
2018-12-22T00:14:43.308Z,5.87
2018-12-22T00:17:10.774Z,6.03
2018-12-22T00:19:38.217Z,6.37
2018-12-22T00:22:05.700Z,7.37
2018-12-22T00:24:33.142Z,6.77
2018-12-22T00:27:00.636Z,5.90
2018-12-22T00:29:28.115Z,6.40
2018-12-22T00:31:59.133Z,6.90
2018-12-22T00:34:26.594Z,7.03
2018-12-22T00:36:54.090Z,6.60
2018-12-22T00:39:21.580Z,7.20
2018-12-22T00:41:49.058Z,6.23
2018-12-22T00:44:16.523Z,6.77
2018-12-22T00:46:44.035Z,6.50
2018-12-22T00:49:11.480Z,6.40
2018-12-22T00:51:38.936Z,6.60
2018-12-22T00:54:06.419Z,5.97
2018-12-22T00:56:33.865Z,6.30
2018-12-22T00:59:01.342Z,6.87
2018-12-22T01:01:28.796Z,6.23
2018-12-22T01:03:56.272Z,6.20
2018-12-22T01:06:23.732Z,6.27
2018-12-22T01:08:51.239Z,6.20
2018-12-22T01:11:18.758Z,6.63
2018-12-22T01:13:46.246Z,6.03
2018-12-22T01:16:13.718Z,6.50
2018-12-22T01:18:41.174Z,6.30
2018-12-22T01:21:08.646Z,5.60
2018-12-22T01:23:36.143Z,6.87
2018-12-22T01:26:03.595Z,5.60
2018-12-22T01:28:39.224Z,5.63
2018-12-22T01:31:00.541Z,6.03
2018-12-22T01:33:27.988Z,6.87
2018-12-22T01:35:55.519Z,6.13
2018-12-22T01:38:22.998Z,6.17
2018-12-22T01:40:50.457Z,6.03
2018-12-22T01:43:17.939Z,6.03
2018-12-22T01:45:45.403Z,6.10
2018-12-22T01:48:12.859Z,5.50
2018-12-22T01:50:40.332Z,6.33
2018-12-22T01:53:07.791Z,6.37
2018-12-22T01:55:35.284Z,6.40
2018-12-22T01:58:02.746Z,5.93
2018-12-22T02:00:30.245Z,6.40
2018-12-22T02:02:57.698Z,6.50
2018-12-22T02:05:25.167Z,6.57
2018-12-22T02:07:52.618Z,6.00
2018-12-22T02:10:20.097Z,5.83
2018-12-22T02:12:47.566Z,6.40
2018-12-22T02:15:15.041Z,6.23
2018-12-22T02:17:42.497Z,6.70
2018-12-22T02:20:09.962Z,5.93
2018-12-22T02:22:37.436Z,6.30
2018-12-22T02:25:04.991Z,7.10
2018-12-22T02:27:32.486Z,6.27
2018-12-22T02:29:59.935Z,6.10
2018-12-22T02:32:27.410Z,6.60
2018-12-22T02:34:54.865Z,5.80
2018-12-22T02:37:22.342Z,5.77
2018-12-22T02:39:49.788Z,5.40
2018-12-22T02:42:17.257Z,6.33
2018-12-22T02:44:44.723Z,5.97
2018-12-22T02:47:12.242Z,5.13
2018-12-22T02:49:39.768Z,6.30
2018-12-22T02:52:07.321Z,5.60
2018-12-22T02:54:34.770Z,5.07
2018-12-22T02:57:02.248Z,4.33
2018-12-22T02:59:29.708Z,5.20
2018-12-22T03:01:57.193Z,5.50
2018-12-22T03:04:24.754Z,5.50
2018-12-22T03:06:52.229Z,5.37
2018-12-22T03:09:19.717Z,5.53
2018-12-22T03:11:47.194Z,4.93
2018-12-22T03:14:14.687Z,5.10
2018-12-22T03:16:42.143Z,4.57
2018-12-22T03:19:09.607Z,5.00
2018-12-22T03:21:37.088Z,4.57
2018-12-22T03:24:04.561Z,5.23
2018-12-22T03:26:32.024Z,4.97
2018-12-22T03:28:59.604Z,4.77
2018-12-22T03:31:27.066Z,4.83
2018-12-22T03:33:54.531Z,4.97
2018-12-22T03:36:22.077Z,4.43
2018-12-22T03:38:49.554Z,5.13
2018-12-22T03:41:16.998Z,4.30
2018-12-22T03:43:44.482Z,4.87
2018-12-22T03:46:11.938Z,4.90
2018-12-22T03:48:39.421Z,4.90
2018-12-22T03:51:06.858Z,4.23
2018-12-22T03:53:34.340Z,4.20
2018-12-22T03:56:01.814Z,4.00
2018-12-22T03:58:29.268Z,4.10
2018-12-22T04:00:56.807Z,4.17
2018-12-22T04:03:24.274Z,3.30
2018-12-22T04:05:51.741Z,3.27
2018-12-22T04:08:19.376Z,3.53
2018-12-22T04:10:46.842Z,3.67
2018-12-22T04:13:14.327Z,3.27
2018-12-22T04:15:41.799Z,3.83
2018-12-22T04:18:09.246Z,3.27
2018-12-22T04:20:36.716Z,3.00
2018-12-22T04:23:04.183Z,3.07
2018-12-22T04:25:31.654Z,3.27
2018-12-22T04:27:59.130Z,3.03
2018-12-22T04:30:26.618Z,3.07
2018-12-22T04:32:54.083Z,2.63
2018-12-22T04:35:21.543Z,2.17
2018-12-22T04:37:48.989Z,2.20
2018-12-22T04:40:16.496Z,2.13
2018-12-22T04:42:43.981Z,1.80
2018-12-22T04:45:11.541Z,1.50
2018-12-22T04:47:40.051Z,1.37
2018-12-22T04:50:07.784Z,1.40
2018-12-22T04:52:35.246Z,1.50
2018-12-22T04:55:02.802Z,1.50
2018-12-22T04:57:30.266Z,1.80
2018-12-22T04:59:57.720Z,2.00
2018-12-22T05:02:25.199Z,2.07
2018-12-22T05:04:52.648Z,1.87
2018-12-22T05:07:20.128Z,2.23
2018-12-22T05:09:47.599Z,2.60
2018-12-22T05:12:15.070Z,2.33
2018-12-22T05:14:42.519Z,2.00
2018-12-22T05:17:09.986Z,2.90
2018-12-22T05:19:37.440Z,3.00
2018-12-22T05:22:04.903Z,2.80
2018-12-22T05:24:32.374Z,3.00
2018-12-22T05:26:59.849Z,3.30
2018-12-22T05:29:27.291Z,3.47
2018-12-22T05:31:54.769Z,3.27
2018-12-22T05:34:22.206Z,3.00
2018-12-22T05:36:49.687Z,3.43
2018-12-22T05:39:17.122Z,2.83
2018-12-22T05:41:44.599Z,2.67
2018-12-22T05:44:12.048Z,3.17
2018-12-22T05:46:39.493Z,2.70
2018-12-22T05:49:06.968Z,2.87
2018-12-22T05:51:34.439Z,2.70
2018-12-22T05:54:01.946Z,3.20
2018-12-22T05:56:29.912Z,2.77
2018-12-22T05:58:57.546Z,2.80
2018-12-22T06:01:25.026Z,3.67
2018-12-22T06:03:52.494Z,3.70
2018-12-22T06:06:20.094Z,3.60
2018-12-22T06:08:47.564Z,3.23
2018-12-22T06:11:15.043Z,2.90
2018-12-22T06:13:42.498Z,3.40
2018-12-22T06:16:09.971Z,2.90
2018-12-22T06:18:37.442Z,3.17
2018-12-22T06:21:04.923Z,3.03
2018-12-22T06:23:32.389Z,3.30
2018-12-22T06:25:59.852Z,2.77
2018-12-22T06:28:27.335Z,3.20
2018-12-22T06:30:54.811Z,3.30
2018-12-22T06:33:22.264Z,3.43
2018-12-22T06:35:49.740Z,2.97
2018-12-22T06:38:17.887Z,2.83
2018-12-22T06:40:45.362Z,3.27
2018-12-22T06:43:12.837Z,3.67
2018-12-22T06:45:40.294Z,3.50
2018-12-22T06:48:07.748Z,3.30
2018-12-22T06:50:35.218Z,3.83
2018-12-22T06:53:02.680Z,3.63
2018-12-22T06:55:30.158Z,3.63
2018-12-22T06:57:57.646Z,3.37
2018-12-22T07:00:25.106Z,3.50
2018-12-22T07:02:52.574Z,3.10
2018-12-22T07:05:20.047Z,3.23
2018-12-22T07:07:47.531Z,3.00
2018-12-22T07:10:14.970Z,3.10
2018-12-22T07:12:42.447Z,2.77
2018-12-22T07:15:10.713Z,3.00
2018-12-22T07:17:38.196Z,3.00
2018-12-22T07:20:05.643Z,2.87
2018-12-22T07:22:33.118Z,2.77
2018-12-22T07:25:00.593Z,3.17
2018-12-22T07:27:28.078Z,2.60
2018-12-22T07:29:55.527Z,2.43
2018-12-22T07:32:22.998Z,3.07
2018-12-22T07:34:50.443Z,2.23
2018-12-22T07:37:17.922Z,2.67
2018-12-22T07:39:45.374Z,2.00
2018-12-22T07:42:12.853Z,2.00
2018-12-22T07:44:40.300Z,1.90
2018-12-22T07:47:07.769Z,2.30
2018-12-22T07:49:35.218Z,2.30
2018-12-22T07:52:02.673Z,1.90
2018-12-22T07:54:30.154Z,1.90
2018-12-22T07:56:57.615Z,2.13
2018-12-22T07:59:25.075Z,2.20
2018-12-22T08:01:52.532Z,2.30
2018-12-22T08:04:20.001Z,2.10
2018-12-22T08:06:47.447Z,2.67
2018-12-22T08:09:14.927Z,2.47
2018-12-22T08:11:42.385Z,2.63
2018-12-22T08:14:09.859Z,2.30
2018-12-22T08:16:37.318Z,2.40
2018-12-22T08:19:04.864Z,2.80
2018-12-22T08:21:32.322Z,2.87
2018-12-22T08:23:59.774Z,3.00
2018-12-22T08:26:27.258Z,2.97
2018-12-22T08:28:54.719Z,3.10
2018-12-22T08:31:23.169Z,2.87
2018-12-22T08:33:50.751Z,3.00
2018-12-22T08:36:18.241Z,3.60
2018-12-22T08:38:45.691Z,3.17
2018-12-22T08:41:13.191Z,3.13
2018-12-22T08:43:40.685Z,3.20
2018-12-22T08:46:08.211Z,2.77
2018-12-22T08:48:35.680Z,3.07
2018-12-22T08:51:03.148Z,2.87
2018-12-22T08:53:30.599Z,3.20
2018-12-22T08:55:58.067Z,3.27
2018-12-22T08:58:25.527Z,2.97
2018-12-22T09:00:53.004Z,3.17
2018-12-22T09:03:20.454Z,2.77
2018-12-22T09:05:47.931Z,3.40
2018-12-22T09:08:15.387Z,3.00
2018-12-22T09:10:42.855Z,2.33
2018-12-22T09:13:10.313Z,2.33
2018-12-22T09:15:37.786Z,2.53
2018-12-22T09:18:05.285Z,3.10
2018-12-22T09:20:32.737Z,2.43
2018-12-22T09:23:00.220Z,2.97
2018-12-22T09:25:27.668Z,2.60
2018-12-22T09:27:55.143Z,2.37
2018-12-22T09:30:22.595Z,2.50
2018-12-22T09:32:50.071Z,2.60
2018-12-22T09:35:17.540Z,2.40
2018-12-22T09:37:45.025Z,2.93
2018-12-22T09:40:12.476Z,2.23
2018-12-22T09:42:40.046Z,2.47
2018-12-22T09:45:07.693Z,2.13
2018-12-22T09:47:36.459Z,2.33
2018-12-22T09:50:07.396Z,2.37
2018-12-22T09:52:34.892Z,2.40
2018-12-22T09:55:02.341Z,2.30
2018-12-22T09:57:29.788Z,2.43
2018-12-22T09:59:57.263Z,2.20
2018-12-22T10:02:24.743Z,2.50
2018-12-22T10:04:52.214Z,2.30
2018-12-22T10:07:19.682Z,3.07
2018-12-22T10:09:47.174Z,2.57
2018-12-22T10:12:14.648Z,2.37
2018-12-22T10:14:42.146Z,2.73
2018-12-22T10:17:09.594Z,2.67
2018-12-22T10:19:37.210Z,2.97
2018-12-22T10:22:04.664Z,2.83
2018-12-22T10:24:32.151Z,3.00
2018-12-22T10:26:59.604Z,3.00
2018-12-22T10:29:27.091Z,3.07
2018-12-22T10:31:54.546Z,3.47
2018-12-22T10:34:22.013Z,3.20
2018-12-22T10:36:49.465Z,3.73
2018-12-22T10:39:16.950Z,3.50
2018-12-22T10:41:44.394Z,3.47
2018-12-22T10:44:11.895Z,3.30
2018-12-22T10:46:39.331Z,3.40
2018-12-22T10:49:06.809Z,3.97
2018-12-22T10:51:34.288Z,3.50
2018-12-22T10:54:01.758Z,4.13
2018-12-22T10:56:29.239Z,3.67
2018-12-22T10:58:56.771Z,3.10
2018-12-22T11:01:26.612Z,3.50
2018-12-22T11:03:53.748Z,3.20
2018-12-22T11:06:21.235Z,3.43
2018-12-22T11:08:48.674Z,3.80
2018-12-22T11:11:16.154Z,3.60
2018-12-22T11:13:43.626Z,3.83
2018-12-22T11:16:11.102Z,3.50
2018-12-22T11:18:38.579Z,3.33
2018-12-22T11:21:06.054Z,3.73
2018-12-22T11:23:33.539Z,3.23
2018-12-22T11:26:01.022Z,3.80
2018-12-22T11:28:28.490Z,3.47
2018-12-22T11:30:56.075Z,3.40
2018-12-22T11:33:23.620Z,3.60
2018-12-22T11:35:51.100Z,3.50
2018-12-22T11:38:18.598Z,3.60
2018-12-22T11:40:46.055Z,3.80
2018-12-22T11:43:13.537Z,3.90
2018-12-22T11:45:40.985Z,3.37
2018-12-22T11:48:12.418Z,3.63
2018-12-22T11:50:39.883Z,4.33
2018-12-22T11:53:07.375Z,3.33
2018-12-22T11:55:34.859Z,3.70
2018-12-22T11:58:02.336Z,3.13
2018-12-22T12:00:29.812Z,3.40
2018-12-22T12:02:57.314Z,3.33
2018-12-22T12:05:24.825Z,3.83
2018-12-22T12:07:52.295Z,3.50
2018-12-22T12:10:19.816Z,3.10
2018-12-22T12:12:47.296Z,3.30
2018-12-22T12:15:17.730Z,2.93
2018-12-22T12:18:18.978Z,3.77
2018-12-22T12:20:46.431Z,2.80
2018-12-22T12:23:13.955Z,2.97
2018-12-22T12:25:41.426Z,3.10
2018-12-22T12:28:08.907Z,3.20
2018-12-22T12:30:36.412Z,3.00
2018-12-22T12:33:03.913Z,3.10
2018-12-22T12:35:31.390Z,3.30
2018-12-22T12:37:58.840Z,3.10
2018-12-22T12:40:26.341Z,3.33
2018-12-22T12:42:53.787Z,4.33
2018-12-22T12:45:21.289Z,3.57
2018-12-22T12:47:48.744Z,3.10
2018-12-22T12:50:19.854Z,2.80
2018-12-22T12:52:47.524Z,3.00
2018-12-22T12:55:15.270Z,2.50
2018-12-22T12:57:42.741Z,2.90
2018-12-22T13:00:18.810Z,2.90
2018-12-22T13:02:46.271Z,3.77
2018-12-22T13:05:13.840Z,2.80
2018-12-22T13:07:41.289Z,2.73
2018-12-22T13:10:12.389Z,3.13
2018-12-22T13:15:50.373Z,2.77
2018-12-22T13:18:18.286Z,3.30
2018-12-22T13:20:45.789Z,3.30
2018-12-22T13:23:13.246Z,3.47
2018-12-22T13:25:40.741Z,3.20
2018-12-22T13:28:08.199Z,3.27
2018-12-22T13:30:35.707Z,3.17
2018-12-22T13:33:03.213Z,3.17
2018-12-22T13:35:30.747Z,3.10
2018-12-22T13:37:58.269Z,3.50
2018-12-22T13:40:25.730Z,3.47
2018-12-22T13:42:53.278Z,3.03
2018-12-22T13:45:20.836Z,3.10
2018-12-22T13:47:48.377Z,3.70
2018-12-22T13:50:16.076Z,3.73
2018-12-22T13:52:43.708Z,3.97
2018-12-22T13:55:11.173Z,3.27
2018-12-22T13:57:42.678Z,3.50
2018-12-22T14:00:17.798Z,3.63
2018-12-22T14:02:45.342Z,3.73
2018-12-22T14:05:17.456Z,3.90
2018-12-22T14:07:44.966Z,3.70
2018-12-22T14:10:13.225Z,3.57
2018-12-22T14:12:40.714Z,4.10
2018-12-22T14:15:15.552Z,3.50
2018-12-22T14:17:46.783Z,3.60
2018-12-22T14:20:14.724Z,3.23
2018-12-22T14:22:42.255Z,3.60
2018-12-22T14:25:12.418Z,3.87
2018-12-22T14:27:39.879Z,3.97
2018-12-22T14:30:11.156Z,3.90
2018-12-22T14:32:38.836Z,4.20
2018-12-22T14:35:12.971Z,4.30
2018-12-22T14:37:40.426Z,3.90
2018-12-22T14:40:11.176Z,3.97
2018-12-22T14:42:38.851Z,3.93
2018-12-22T14:45:12.962Z,4.30
2018-12-22T14:47:41.099Z,4.60
2018-12-22T14:50:11.549Z,5.10
2018-12-22T14:52:39.091Z,4.23
2018-12-22T14:55:10.283Z,3.97
2018-12-22T14:57:43.533Z,4.03
2018-12-22T15:00:14.629Z,4.60
2018-12-22T15:02:42.090Z,4.60
2018-12-22T15:05:09.749Z,4.30
2018-12-22T15:07:37.221Z,4.47
2018-12-22T15:10:08.275Z,4.63
2018-12-22T15:12:35.852Z,4.33
2018-12-22T15:15:05.707Z,3.97
2018-12-22T15:17:33.581Z,4.17
2018-12-22T15:20:01.032Z,3.90
2018-12-22T15:22:28.680Z,4.00
2018-12-22T15:24:56.137Z,4.33
2018-12-22T15:27:23.651Z,3.90
2018-12-22T15:29:51.130Z,3.87
2018-12-22T15:32:18.610Z,3.70
2018-12-22T15:34:46.117Z,3.73
2018-12-22T15:37:13.640Z,3.83
2018-12-22T15:39:41.154Z,4.10
2018-12-22T15:42:08.666Z,3.90
2018-12-22T15:44:36.156Z,4.30
2018-12-22T15:47:03.648Z,4.43
2018-12-22T15:49:31.143Z,4.10
2018-12-22T15:51:58.635Z,4.47
2018-12-22T15:54:26.118Z,4.90
2018-12-22T15:56:53.642Z,4.10
2018-12-22T15:59:21.139Z,4.33
2018-12-22T16:01:48.624Z,4.73
2018-12-22T16:04:16.122Z,4.60
2018-12-22T16:06:43.652Z,4.80
2018-12-22T16:09:11.215Z,4.30
2018-12-22T16:11:38.689Z,4.77
2018-12-22T16:14:06.166Z,4.27
2018-12-22T16:16:33.642Z,5.07
2018-12-22T16:19:01.153Z,4.87
2018-12-22T16:21:28.644Z,4.43
2018-12-22T16:23:56.142Z,4.80
2018-12-22T16:26:23.630Z,4.33
2018-12-22T16:28:51.460Z,4.00
2018-12-22T16:31:18.954Z,4.10
2018-12-22T16:33:46.447Z,4.30
2018-12-22T16:36:13.977Z,3.90
2018-12-22T16:38:41.512Z,4.07
2018-12-22T16:41:08.989Z,4.30
2018-12-22T16:43:36.543Z,5.40
2018-12-22T16:46:04.071Z,4.97
2018-12-22T16:48:31.676Z,4.50
2018-12-22T16:50:59.206Z,4.03
2018-12-22T16:53:26.758Z,4.40
2018-12-22T16:55:54.300Z,3.97
2018-12-22T16:58:25.058Z,4.80
2018-12-22T17:00:59.151Z,6.63
2018-12-22T17:03:27.043Z,4.90
2018-12-22T17:05:54.953Z,4.20
2018-12-22T17:08:22.437Z,4.27
2018-12-22T17:10:50.815Z,4.77
2018-12-22T17:13:18.287Z,4.73
2018-12-22T17:15:46.678Z,4.77
2018-12-22T17:18:14.148Z,5.87
2018-12-22T17:20:41.611Z,5.20
2018-12-22T17:23:20.651Z,5.17
2018-12-22T17:25:51.906Z,5.93
2018-12-22T17:28:28.068Z,5.10
2018-12-22T17:30:49.604Z,5.43
2018-12-22T17:33:19.037Z,5.67
2018-12-22T17:35:46.625Z,5.20
2018-12-22T17:38:14.118Z,5.67
2018-12-22T17:40:41.697Z,7.10
2018-12-22T17:43:09.171Z,6.13
2018-12-22T17:45:36.668Z,6.47
2018-12-22T17:48:04.167Z,6.27
2018-12-22T17:50:31.664Z,5.73
2018-12-22T17:52:59.719Z,6.23
2018-12-22T17:55:27.318Z,5.90
2018-12-22T17:57:54.805Z,5.33
2018-12-22T18:00:22.302Z,5.13
2018-12-22T18:02:49.944Z,5.43
2018-12-22T18:05:17.546Z,4.47
2018-12-22T18:07:45.520Z,4.80
2018-12-22T18:10:13.067Z,4.43
2018-12-22T18:12:40.573Z,4.83
2018-12-22T18:15:17.034Z,15.70
2018-12-22T18:17:44.548Z,5.40
2018-12-22T18:20:12.012Z,5.37
2018-12-22T18:22:39.487Z,5.23
2018-12-22T18:25:13.047Z,5.30
2018-12-22T18:27:40.510Z,4.53
2018-12-22T18:30:10.682Z,5.10
2018-12-22T18:32:38.350Z,6.20
2018-12-22T18:35:08.138Z,5.57
2018-12-22T18:37:35.628Z,5.50
2018-12-22T18:40:06.813Z,4.73
2018-12-22T18:42:34.304Z,4.70
2018-12-22T18:45:01.858Z,5.33
2018-12-22T18:47:29.354Z,5.60
2018-12-22T18:49:56.846Z,5.50
2018-12-22T18:52:24.331Z,5.80
2018-12-22T18:54:51.866Z,5.30
2018-12-22T18:57:19.340Z,5.23
2018-12-22T18:59:46.850Z,5.07
2018-12-22T19:02:14.332Z,5.60
2018-12-22T19:04:41.849Z,5.30
2018-12-22T19:07:09.299Z,5.17
2018-12-22T19:09:36.871Z,4.97
2018-12-22T19:12:06.274Z,5.60
2018-12-22T19:14:33.743Z,5.50
2018-12-22T19:17:01.326Z,5.57
2018-12-22T19:19:28.827Z,4.80
2018-12-22T19:21:56.310Z,5.93
2018-12-22T19:24:23.755Z,5.90
2018-12-22T19:26:51.285Z,7.27
2018-12-22T19:29:18.754Z,6.43
2018-12-22T19:31:46.317Z,9.77
2018-12-22T19:34:13.823Z,6.47
2018-12-22T19:36:41.295Z,7.70
2018-12-22T19:39:08.764Z,6.70
2018-12-22T19:41:36.314Z,7.47
2018-12-22T19:44:03.805Z,6.60
2018-12-22T19:46:31.311Z,7.23
2018-12-22T19:48:58.839Z,7.30
2018-12-22T19:51:27.446Z,6.77
2018-12-22T19:53:55.272Z,7.80
2018-12-22T19:56:22.798Z,7.63
2018-12-22T19:58:50.306Z,6.73
2018-12-22T20:01:18.175Z,5.97
2018-12-22T20:03:45.654Z,6.80
2018-12-22T20:06:13.140Z,7.07
2018-12-22T20:08:40.663Z,6.83
2018-12-22T20:11:08.139Z,6.27
2018-12-22T20:13:35.621Z,6.97
2018-12-22T20:16:08.907Z,7.03
2018-12-22T20:18:32.726Z,7.63
2018-12-22T20:21:00.180Z,7.03
2018-12-22T20:23:27.764Z,7.23
2018-12-22T20:25:55.316Z,6.17
2018-12-22T20:28:22.846Z,6.83
2018-12-22T20:30:50.323Z,7.67
2018-12-22T20:33:17.787Z,6.63
2018-12-22T20:35:45.259Z,6.37
2018-12-22T20:38:12.736Z,7.13
2018-12-22T20:40:40.171Z,7.10
2018-12-22T20:43:07.657Z,7.07
2018-12-22T20:45:35.126Z,6.77
2018-12-22T20:48:02.680Z,6.93
2018-12-22T20:50:30.208Z,6.93
2018-12-22T20:52:57.709Z,6.13
2018-12-22T20:55:25.237Z,6.50
2018-12-22T20:57:52.699Z,6.20
2018-12-22T21:00:20.200Z,6.03
2018-12-22T21:02:47.653Z,5.83
2018-12-22T21:05:16.837Z,6.87
2018-12-22T21:07:44.313Z,5.27
2018-12-22T21:10:11.783Z,5.80
2018-12-22T21:12:39.260Z,5.80
2018-12-22T21:15:07.640Z,5.97
2018-12-22T21:17:35.206Z,5.37
2018-12-22T21:20:02.676Z,5.10
2018-12-22T21:22:30.190Z,5.47
2018-12-22T21:24:57.707Z,5.20
2018-12-22T21:27:25.158Z,5.77
2018-12-22T21:29:52.635Z,5.57
2018-12-22T21:32:20.103Z,5.00
2018-12-22T21:34:47.612Z,5.30
2018-12-22T21:37:15.099Z,5.17
2018-12-22T21:39:42.569Z,6.13
2018-12-22T21:42:10.047Z,5.60
2018-12-22T21:44:37.488Z,5.73
2018-12-22T21:47:04.980Z,7.37
2018-12-22T21:49:32.438Z,6.27
2018-12-22T21:52:00.893Z,7.67
2018-12-22T21:54:28.364Z,7.73
2018-12-22T21:56:55.900Z,6.60
2018-12-22T21:59:23.392Z,5.90
2018-12-22T22:01:50.872Z,5.90
2018-12-22T22:04:18.358Z,6.50
2018-12-22T22:06:45.881Z,5.40
2018-12-22T22:09:13.358Z,5.80
2018-12-22T22:11:40.861Z,5.80
2018-12-22T22:14:08.336Z,5.90
2018-12-22T22:16:35.791Z,6.40
2018-12-22T22:19:03.324Z,6.17
2018-12-22T22:21:30.788Z,6.10
2018-12-22T22:23:58.303Z,5.90
2018-12-22T22:26:25.787Z,5.53
2018-12-22T22:28:53.340Z,5.80
2018-12-22T22:31:20.822Z,6.57
2018-12-22T22:33:48.303Z,5.90
2018-12-22T22:36:15.880Z,6.07
2018-12-22T22:38:43.340Z,5.90
2018-12-22T22:41:10.830Z,5.97
2018-12-22T22:43:38.422Z,6.23
2018-12-22T22:46:05.992Z,5.60
2018-12-22T22:48:33.488Z,6.07
2018-12-22T22:51:00.935Z,6.07
2018-12-22T22:53:28.427Z,5.43
2018-12-22T22:55:55.880Z,6.00
2018-12-22T22:58:23.358Z,5.37
2018-12-22T23:00:50.915Z,6.40
2018-12-22T23:03:18.392Z,6.13
2018-12-22T23:05:45.903Z,5.70
2018-12-22T23:08:13.373Z,5.77
2018-12-22T23:10:40.848Z,5.67
2018-12-22T23:13:08.296Z,6.03
2018-12-22T23:15:35.775Z,5.77
2018-12-22T23:18:03.250Z,6.07
2018-12-22T23:20:30.733Z,5.23
2018-12-22T23:22:58.199Z,5.57
2018-12-22T23:25:26.615Z,5.37
2018-12-22T23:27:54.078Z,5.37
2018-12-22T23:30:21.584Z,5.27
2018-12-22T23:32:49.029Z,5.43
2018-12-22T23:35:16.559Z,5.47
2018-12-22T23:37:44.049Z,5.03
2018-12-22T23:40:11.632Z,5.57
2018-12-22T23:42:39.099Z,5.63
2018-12-22T23:45:06.692Z,5.63
2018-12-22T23:47:34.175Z,5.37
2018-12-22T23:50:01.658Z,6.23
2018-12-22T23:52:29.128Z,6.53
2018-12-22T23:54:56.604Z,5.40
2018-12-22T23:57:24.074Z,5.17
2018-12-22T23:59:51.579Z,4.40
